createdAt,value
2023-05-05T00:00:21.512Z,95114.00
2023-05-05T00:01:21.557Z,95116.00
2023-05-05T00:02:21.700Z,95116.00
2023-05-05T00:03:21.702Z,95118.00
2023-05-05T00:04:21.683Z,95116.00
2023-05-05T00:05:21.731Z,95116.00
2023-05-05T00:06:21.719Z,95114.00
2023-05-05T00:07:21.783Z,95118.00
2023-05-05T00:08:21.846Z,95118.00
2023-05-05T00:09:21.836Z,95120.00
2023-05-05T00:10:21.884Z,95116.00
2023-05-05T00:11:21.967Z,95122.00
2023-05-05T00:12:21.979Z,95122.00
2023-05-05T00:13:21.983Z,95120.00
2023-05-05T00:14:22.037Z,95122.00
2023-05-05T00:15:22.096Z,95118.00
2023-05-05T00:16:22.184Z,95114.00
2023-05-05T00:17:22.168Z,95116.00
2023-05-05T00:18:22.181Z,95120.00
2023-05-05T00:19:22.223Z,95118.00
2023-05-05T00:20:22.270Z,95120.00
2023-05-05T00:21:22.320Z,95122.00
2023-05-05T00:22:22.311Z,95120.00
2023-05-05T00:23:22.400Z,95122.00
2023-05-05T00:24:22.471Z,95122.00
2023-05-05T00:25:22.472Z,95122.00
2023-05-05T00:26:22.524Z,95122.00
2023-05-05T00:27:22.546Z,95116.00
2023-05-05T00:28:22.592Z,95120.00
2023-05-05T00:29:22.641Z,95118.00
2023-05-05T00:30:22.678Z,95120.00
2023-05-05T00:31:22.844Z,95118.00
2023-05-05T00:32:22.802Z,95118.00
2023-05-05T00:33:22.843Z,95120.00
2023-05-05T00:34:22.890Z,95118.00
2023-05-05T00:35:22.911Z,95118.00
2023-05-05T00:36:23.004Z,95122.00
2023-05-05T00:37:23.017Z,95122.00
2023-05-05T00:38:23.050Z,95122.00
2023-05-05T00:39:23.124Z,95124.00
2023-05-05T00:40:23.172Z,95124.00
2023-05-05T00:41:23.246Z,95124.00
2023-05-05T00:42:23.300Z,95120.00
2023-05-05T00:43:23.354Z,95122.00
2023-05-05T00:44:23.421Z,95125.00
2023-05-05T00:45:23.428Z,95122.00
2023-05-05T00:46:23.554Z,95124.00
2023-05-05T00:47:23.552Z,95118.00
2023-05-05T00:48:23.587Z,95122.00
2023-05-05T00:49:23.729Z,95124.00
2023-05-05T00:50:23.712Z,95122.00
2023-05-05T00:51:23.777Z,95120.00
2023-05-05T00:52:23.836Z,95118.00
2023-05-05T00:53:23.851Z,95124.00
2023-05-05T00:54:23.922Z,95122.00
2023-05-05T00:55:23.959Z,95120.00
2023-05-05T00:56:24.103Z,95122.00
2023-05-05T00:57:24.032Z,95124.00
2023-05-05T00:58:24.134Z,95124.00
2023-05-05T00:59:24.141Z,95124.00
2023-05-05T01:00:24.198Z,95125.00
2023-05-05T01:01:24.280Z,95124.00
2023-05-05T01:02:24.290Z,95122.00
2023-05-05T01:03:24.445Z,95122.00
2023-05-05T01:04:24.390Z,95120.00
2023-05-05T01:05:24.427Z,95120.00
2023-05-05T01:06:24.488Z,95120.00
2023-05-05T01:07:24.548Z,95116.00
2023-05-05T01:08:24.630Z,95118.00
2023-05-05T01:09:24.657Z,95114.00
2023-05-05T01:10:25.028Z,95114.00
2023-05-05T01:11:24.729Z,95114.00
2023-05-05T01:12:24.790Z,95116.00
2023-05-05T01:13:24.867Z,95114.00
2023-05-05T01:14:24.903Z,95116.00
2023-05-05T01:15:24.967Z,95114.00
2023-05-05T01:16:25.091Z,95110.00
2023-05-05T01:17:25.127Z,95110.00
2023-05-05T01:18:25.097Z,95114.00
2023-05-05T01:19:25.150Z,95114.00
2023-05-05T01:20:25.206Z,95112.00
2023-05-05T01:21:25.294Z,95114.00
2023-05-05T01:22:25.318Z,95116.00
2023-05-05T01:23:25.391Z,95118.00
2023-05-05T01:24:25.445Z,95116.00
2023-05-05T01:25:25.461Z,95116.00
2023-05-05T01:26:25.559Z,95114.00
2023-05-05T01:27:25.587Z,95116.00
2023-05-05T01:28:25.668Z,95120.00
2023-05-05T01:29:25.742Z,95118.00
2023-05-05T01:30:25.788Z,95120.00
2023-05-05T01:31:25.877Z,95124.00
2023-05-05T01:32:25.911Z,95120.00
2023-05-05T01:33:25.900Z,95120.00
2023-05-05T01:34:25.953Z,95122.00
2023-05-05T01:35:26.030Z,95120.00
2023-05-05T01:36:26.065Z,95124.00
2023-05-05T01:37:26.081Z,95124.00
2023-05-05T01:38:26.200Z,95120.00
2023-05-05T01:39:26.209Z,95124.00
2023-05-05T01:40:26.272Z,95124.00
2023-05-05T01:41:26.332Z,95125.00
2023-05-05T01:42:26.372Z,95125.00
2023-05-05T01:43:26.481Z,95125.00
2023-05-05T01:44:26.508Z,95125.00
2023-05-05T01:45:26.549Z,95127.00
2023-05-05T01:46:26.644Z,95125.00
2023-05-05T01:47:26.776Z,95124.00
2023-05-05T01:48:26.722Z,95124.00
2023-05-05T01:49:26.779Z,95124.00
2023-05-05T01:50:26.836Z,95127.00
2023-05-05T01:51:26.897Z,95127.00
2023-05-05T01:52:26.930Z,95131.00
2023-05-05T01:53:26.954Z,95129.00
2023-05-05T01:54:27.069Z,95129.00
2023-05-05T01:55:27.127Z,95131.00
2023-05-05T01:56:27.160Z,95129.00
2023-05-05T01:57:27.206Z,95133.00
2023-05-05T01:58:27.246Z,95135.00
2023-05-05T01:59:27.275Z,95133.00
2023-05-05T02:00:27.361Z,95135.00
2023-05-05T02:01:27.411Z,95135.00
2023-05-05T02:02:27.547Z,95133.00
2023-05-05T02:03:27.553Z,95131.00
2023-05-05T02:04:27.596Z,95131.00
2023-05-05T02:05:27.652Z,95131.00
2023-05-05T02:06:27.761Z,95129.00
2023-05-05T02:07:27.742Z,95127.00
2023-05-05T02:08:27.778Z,95127.00
2023-05-05T02:09:27.857Z,95129.00
2023-05-05T02:10:27.907Z,95131.00
2023-05-05T02:11:27.989Z,95133.00
2023-05-05T02:12:28.017Z,95137.00
2023-05-05T02:13:28.117Z,95135.00
2023-05-05T02:14:28.132Z,95137.00
2023-05-05T02:15:28.200Z,95139.00
2023-05-05T02:16:28.257Z,95147.00
2023-05-05T02:17:28.295Z,95139.00
2023-05-05T02:18:28.381Z,95133.00
2023-05-05T02:19:28.391Z,95137.00
2023-05-05T02:20:28.453Z,95137.00
2023-05-05T02:21:28.527Z,95135.00
2023-05-05T02:22:28.576Z,95137.00
2023-05-05T02:23:28.601Z,95137.00
2023-05-05T02:24:28.644Z,95137.00
2023-05-05T02:25:28.713Z,95135.00
2023-05-05T02:26:28.791Z,95139.00
2023-05-05T02:27:28.836Z,95137.00
2023-05-05T02:28:28.950Z,95137.00
2023-05-05T02:29:28.947Z,95137.00
2023-05-05T02:30:28.989Z,95137.00
2023-05-05T02:31:29.164Z,95137.00
2023-05-05T02:32:29.160Z,95147.00
2023-05-05T02:33:29.211Z,95139.00
2023-05-05T02:34:29.265Z,95147.00
2023-05-05T02:35:29.293Z,95139.00
2023-05-05T02:36:29.463Z,95139.00
2023-05-05T02:37:29.437Z,95139.00
2023-05-05T02:38:29.474Z,95139.00
2023-05-05T02:39:29.500Z,95149.00
2023-05-05T02:40:29.583Z,95151.00
2023-05-05T02:41:29.646Z,95149.00
2023-05-05T02:42:29.706Z,95151.00
2023-05-05T02:43:29.817Z,95153.00
2023-05-05T02:44:29.819Z,95151.00
2023-05-05T02:45:29.894Z,95151.00
2023-05-05T02:46:29.986Z,95151.00
2023-05-05T02:47:30.009Z,95153.00
2023-05-05T02:48:30.073Z,95149.00
2023-05-05T02:49:30.130Z,95151.00
2023-05-05T02:50:30.165Z,95151.00
2023-05-05T02:51:30.247Z,95151.00
2023-05-05T02:52:30.301Z,95149.00
2023-05-05T02:53:30.336Z,95151.00
2023-05-05T02:54:30.400Z,95149.00
2023-05-05T02:55:30.492Z,95153.00
2023-05-05T02:56:30.529Z,95155.00
2023-05-05T02:57:30.578Z,95151.00
2023-05-05T02:58:30.623Z,95149.00
2023-05-05T02:59:30.693Z,95151.00
2023-05-05T03:00:30.760Z,95153.00
2023-05-05T03:01:30.838Z,95151.00
2023-05-05T03:02:30.983Z,95153.00
2023-05-05T03:03:31.026Z,95155.00
2023-05-05T03:04:30.994Z,95155.00
2023-05-05T03:05:31.165Z,95157.00
2023-05-05T03:06:31.135Z,95159.00
2023-05-05T03:07:31.165Z,95157.00
2023-05-05T03:08:31.281Z,95157.00
2023-05-05T03:09:31.302Z,95159.00
2023-05-05T03:10:31.333Z,95159.00
2023-05-05T03:11:31.453Z,95157.00
2023-05-05T03:12:31.495Z,95159.00
2023-05-05T03:13:31.562Z,95157.00
2023-05-05T03:14:33.366Z,95157.00
2023-05-05T03:15:31.708Z,95155.00
2023-05-05T03:16:31.764Z,95155.00
2023-05-05T03:17:31.778Z,95153.00
2023-05-05T03:18:31.825Z,95153.00
2023-05-05T03:19:31.862Z,95153.00
2023-05-05T03:20:31.962Z,95153.00
2023-05-05T03:21:31.994Z,95151.00
2023-05-05T03:22:32.072Z,95153.00
2023-05-05T03:23:32.178Z,95153.00
2023-05-05T03:24:32.176Z,95149.00
2023-05-05T03:25:32.265Z,95153.00
2023-05-05T03:26:32.309Z,95151.00
2023-05-05T03:27:32.392Z,95151.00
2023-05-05T03:28:32.441Z,95153.00
2023-05-05T03:29:32.457Z,95155.00
2023-05-05T03:30:32.550Z,95155.00
2023-05-05T03:31:32.623Z,95155.00
2023-05-05T03:32:32.681Z,95153.00
2023-05-05T03:33:32.760Z,95149.00
2023-05-05T03:34:32.779Z,95149.00
2023-05-05T03:35:32.845Z,95151.00
2023-05-05T03:36:32.899Z,95157.00
2023-05-05T03:37:32.959Z,95155.00
2023-05-05T03:38:33.009Z,95155.00
2023-05-05T03:39:33.104Z,95157.00
2023-05-05T03:40:43.488Z,95157.00
2023-05-05T03:41:34.106Z,95155.00
2023-05-05T03:42:33.142Z,95155.00
2023-05-05T03:43:33.118Z,95159.00
2023-05-05T03:44:33.110Z,95157.00
2023-05-05T03:45:33.091Z,95157.00
2023-05-05T03:46:33.131Z,95157.00
2023-05-05T03:47:33.134Z,95155.00
2023-05-05T03:48:33.054Z,95155.00
2023-05-05T03:49:33.059Z,95159.00
2023-05-05T03:50:33.076Z,95155.00
2023-05-05T03:51:33.158Z,95159.00
2023-05-05T03:52:33.219Z,95155.00
2023-05-05T03:53:33.271Z,95157.00
2023-05-05T03:54:33.365Z,95153.00
2023-05-05T03:55:33.446Z,95153.00
2023-05-05T03:56:33.459Z,95153.00
2023-05-05T03:57:33.524Z,95155.00
2023-05-05T03:58:33.575Z,95149.00
2023-05-05T03:59:33.612Z,95149.00
2023-05-05T04:00:33.654Z,95149.00
2023-05-05T04:01:33.736Z,95147.00
2023-05-05T04:02:33.913Z,95151.00
2023-05-05T04:03:33.908Z,95151.00
2023-05-05T04:04:33.967Z,95149.00
2023-05-05T04:05:33.983Z,95151.00
2023-05-05T04:06:34.015Z,95151.00
2023-05-05T04:07:34.079Z,95151.00
2023-05-05T04:08:34.133Z,95153.00
2023-05-05T04:09:34.191Z,95155.00
2023-05-05T04:10:34.276Z,95157.00
2023-05-05T04:11:34.298Z,95153.00
2023-05-05T04:12:34.382Z,95157.00
2023-05-05T04:13:34.406Z,95161.00
2023-05-05T04:14:34.446Z,95159.00
2023-05-05T04:15:34.449Z,95155.00
2023-05-05T04:16:34.469Z,95157.00
2023-05-05T04:17:34.518Z,95155.00
2023-05-05T04:18:34.557Z,95159.00
2023-05-05T04:19:34.551Z,95157.00
2023-05-05T04:20:34.544Z,95157.00
2023-05-05T04:21:34.617Z,95157.00
2023-05-05T04:22:34.646Z,95159.00
2023-05-05T04:23:34.707Z,95163.00
2023-05-05T04:24:34.713Z,95161.00
2023-05-05T04:25:34.876Z,95163.00
2023-05-05T04:26:34.800Z,95163.00
2023-05-05T04:27:34.879Z,95161.00
2023-05-05T04:28:34.832Z,95165.00
2023-05-05T04:29:34.885Z,95163.00
2023-05-05T04:30:34.889Z,95161.00
2023-05-05T04:31:34.935Z,95161.00
2023-05-05T04:32:34.932Z,95163.00
2023-05-05T04:33:34.994Z,95163.00
2023-05-05T04:34:34.904Z,95163.00
2023-05-05T04:35:34.990Z,95163.00
2023-05-05T04:36:34.997Z,95163.00
2023-05-05T04:37:35.073Z,95165.00
2023-05-05T04:38:35.134Z,95167.00
2023-05-05T04:39:35.171Z,95165.00
2023-05-05T04:40:35.191Z,95167.00
2023-05-05T04:41:35.241Z,95173.00
2023-05-05T04:42:35.287Z,95175.00
2023-05-05T04:43:35.253Z,95177.00
2023-05-05T04:44:35.271Z,95177.00
2023-05-05T04:45:35.307Z,95180.00
2023-05-05T04:46:35.366Z,95178.00
2023-05-05T04:47:35.382Z,95177.00
2023-05-05T04:48:35.388Z,95177.00
2023-05-05T04:49:35.382Z,95177.00
2023-05-05T04:50:35.395Z,95177.00
2023-05-05T04:51:35.417Z,95173.00
2023-05-05T04:52:35.450Z,95171.00
2023-05-05T04:53:35.481Z,95175.00
2023-05-05T04:54:35.488Z,95171.00
2023-05-05T04:55:35.538Z,95173.00
2023-05-05T04:56:35.531Z,95175.00
2023-05-05T04:57:35.626Z,95171.00
2023-05-05T04:58:35.665Z,95175.00
2023-05-05T04:59:35.733Z,95173.00
2023-05-05T05:00:35.737Z,95173.00
2023-05-05T05:01:38.265Z,95171.00
2023-05-05T05:02:35.855Z,95173.00
2023-05-05T05:03:35.852Z,95173.00
2023-05-05T05:04:35.768Z,95180.00
2023-05-05T05:05:35.734Z,95180.00
2023-05-05T05:06:35.736Z,95182.00
2023-05-05T05:07:35.741Z,95184.00
2023-05-05T05:08:35.780Z,95186.00
2023-05-05T05:09:35.718Z,95182.00
2023-05-05T05:10:35.765Z,95182.00
2023-05-05T05:11:35.713Z,95184.00
2023-05-05T05:12:35.766Z,95182.00
2023-05-05T05:13:35.678Z,95184.00
2023-05-05T05:14:35.709Z,95186.00
2023-05-05T05:15:35.696Z,95188.00
2023-05-05T05:16:35.729Z,95188.00
2023-05-05T05:17:35.686Z,95188.00
2023-05-05T05:18:35.716Z,95188.00
2023-05-05T05:19:35.662Z,95188.00
2023-05-05T05:20:35.643Z,95186.00
2023-05-05T05:21:35.647Z,95184.00
2023-05-05T05:22:35.627Z,95184.00
2023-05-05T05:23:35.619Z,95184.00
2023-05-05T05:24:35.649Z,95182.00
2023-05-05T05:25:35.655Z,95182.00
2023-05-05T05:26:35.614Z,95184.00
2023-05-05T05:27:35.645Z,95182.00
2023-05-05T05:28:35.606Z,95184.00
2023-05-05T05:29:35.587Z,95182.00
2023-05-05T05:30:35.594Z,95182.00
2023-05-05T05:31:35.624Z,95180.00
2023-05-05T05:32:35.633Z,95180.00
2023-05-05T05:33:35.608Z,95184.00
2023-05-05T05:34:35.942Z,95184.00
2023-05-05T05:35:35.553Z,95184.00
2023-05-05T05:36:35.571Z,95184.00
2023-05-05T05:37:35.583Z,95184.00
2023-05-05T05:38:35.554Z,95184.00
2023-05-05T05:39:35.575Z,95184.00
2023-05-05T05:40:35.555Z,95184.00
2023-05-05T05:41:35.532Z,95182.00
2023-05-05T05:42:35.575Z,95186.00
2023-05-05T05:43:35.498Z,95186.00
2023-05-05T05:44:35.909Z,95184.00
2023-05-05T05:45:35.479Z,95184.00
2023-05-05T05:46:35.591Z,95182.00
2023-05-05T05:47:35.513Z,95190.00
2023-05-05T05:48:36.473Z,95182.00
2023-05-05T05:49:36.056Z,95186.00
2023-05-05T05:50:35.544Z,95190.00
2023-05-05T05:51:35.504Z,95188.00
2023-05-05T05:52:35.427Z,95190.00
2023-05-05T05:53:35.478Z,95186.00
2023-05-05T05:54:36.085Z,95186.00
2023-05-05T05:55:37.529Z,95182.00
2023-05-05T05:56:35.984Z,95184.00
2023-05-05T05:57:35.496Z,95182.00
2023-05-05T05:58:35.481Z,95186.00
2023-05-05T05:59:35.470Z,95184.00
2023-05-05T06:00:35.421Z,95186.00
2023-05-05T06:01:35.506Z,95186.00
2023-05-05T06:02:35.513Z,95184.00
2023-05-05T06:03:35.528Z,95184.00
2023-05-05T06:04:35.766Z,95186.00
2023-05-05T06:05:35.485Z,95186.00
2023-05-05T06:06:35.514Z,95182.00
2023-05-05T06:07:35.599Z,95186.00
2023-05-05T06:08:36.019Z,95188.00
2023-05-05T06:09:35.636Z,95186.00
2023-05-05T06:10:35.711Z,95188.00
2023-05-05T06:11:35.723Z,95188.00
2023-05-05T06:12:35.683Z,95186.00
2023-05-05T06:13:35.974Z,95186.00
2023-05-05T06:14:35.701Z,95188.00
2023-05-05T06:15:35.792Z,95186.00
2023-05-05T06:16:35.773Z,95190.00
2023-05-05T06:17:36.471Z,95192.00
2023-05-05T06:18:35.778Z,95188.00
2023-05-05T06:19:35.749Z,95184.00
2023-05-05T06:20:35.795Z,95184.00
2023-05-05T06:21:35.765Z,95184.00
2023-05-05T06:22:35.800Z,95186.00
2023-05-05T06:23:35.767Z,95188.00
2023-05-05T06:24:35.781Z,95190.00
2023-05-05T06:25:35.756Z,95188.00
2023-05-05T06:26:35.814Z,95182.00
2023-05-05T06:27:35.844Z,95182.00
2023-05-05T06:28:35.969Z,95182.00
2023-05-05T06:29:35.925Z,95182.00
2023-05-05T06:30:35.987Z,95180.00
2023-05-05T06:31:36.052Z,95182.00
2023-05-05T06:32:36.145Z,95182.00
2023-05-05T06:33:36.196Z,95178.00
2023-05-05T06:34:36.239Z,95177.00
2023-05-05T06:35:36.440Z,95177.00
2023-05-05T06:36:36.303Z,95175.00
2023-05-05T06:37:36.267Z,95173.00
2023-05-05T06:38:36.317Z,95171.00
2023-05-05T06:39:36.321Z,95169.00
2023-05-05T06:40:36.464Z,95167.00
2023-05-05T06:41:36.410Z,95171.00
2023-05-05T06:42:36.405Z,95169.00
2023-05-05T06:43:36.435Z,95165.00
2023-05-05T06:44:36.491Z,95165.00
2023-05-05T06:45:36.481Z,95165.00
2023-05-05T06:46:36.526Z,95161.00
2023-05-05T06:47:36.556Z,95161.00
2023-05-05T06:48:36.494Z,95161.00
2023-05-05T06:49:36.426Z,95163.00
2023-05-05T06:50:36.464Z,95159.00
2023-05-05T06:51:36.442Z,95157.00
2023-05-05T06:52:37.952Z,95157.00
2023-05-05T06:53:36.474Z,95155.00
2023-05-05T06:54:36.508Z,95155.00
2023-05-05T06:55:36.994Z,95153.00
2023-05-05T06:56:37.476Z,95157.00
2023-05-05T06:57:36.493Z,95157.00
2023-05-05T06:58:37.134Z,95155.00
2023-05-05T06:59:36.556Z,95155.00
2023-05-05T07:00:36.668Z,95155.00
2023-05-05T07:01:36.709Z,95153.00
2023-05-05T07:02:36.752Z,95157.00
2023-05-05T07:03:36.820Z,95157.00
2023-05-05T07:04:36.943Z,95155.00
2023-05-05T07:05:36.912Z,95153.00
2023-05-05T07:06:36.955Z,95153.00
2023-05-05T07:07:37.043Z,95151.00
2023-05-05T07:08:37.470Z,95151.00
2023-05-05T07:09:37.104Z,95149.00
2023-05-05T07:10:37.209Z,95139.00
2023-05-05T07:11:37.231Z,95139.00
2023-05-05T07:12:37.385Z,95139.00
2023-05-05T07:13:37.558Z,95147.00
2023-05-05T07:14:37.539Z,95139.00
2023-05-05T07:15:37.487Z,95147.00
2023-05-05T07:16:37.581Z,95139.00
2023-05-05T07:17:37.590Z,95137.00
2023-05-05T07:18:37.645Z,95133.00
2023-05-05T07:19:37.656Z,95133.00
2023-05-05T07:20:37.671Z,95133.00
2023-05-05T07:21:37.753Z,95131.00
2023-05-05T07:22:37.812Z,95129.00
2023-05-05T07:23:37.925Z,95129.00
2023-05-05T07:24:37.854Z,95127.00
2023-05-05T07:25:37.896Z,95125.00
2023-05-05T07:26:37.921Z,95124.00
2023-05-05T07:27:37.883Z,95124.00
2023-05-05T07:28:38.007Z,95124.00
2023-05-05T07:29:38.049Z,95122.00
2023-05-05T07:30:38.116Z,95122.00
2023-05-05T07:31:38.498Z,95122.00
2023-05-05T07:32:38.121Z,95120.00
2023-05-05T07:33:38.070Z,95118.00
2023-05-05T07:34:38.221Z,95120.00
2023-05-05T07:35:38.488Z,95116.00
2023-05-05T07:36:38.151Z,95116.00
2023-05-05T07:37:38.200Z,95114.00
2023-05-05T07:38:38.483Z,95118.00
2023-05-05T07:39:38.470Z,95114.00
2023-05-05T07:40:38.473Z,95114.00
2023-05-05T07:41:38.292Z,95108.00
2023-05-05T07:42:38.264Z,95108.00
2023-05-05T07:43:39.392Z,95106.00
2023-05-05T07:44:38.522Z,95104.00
2023-05-05T07:45:38.331Z,95102.00
2023-05-05T07:46:38.612Z,95100.00
2023-05-05T07:47:38.444Z,95100.00
2023-05-05T07:48:38.376Z,95098.00
2023-05-05T07:49:38.583Z,95098.00
2023-05-05T07:50:38.487Z,95096.00
2023-05-05T07:51:38.488Z,95092.00
2023-05-05T07:53:39.468Z,95090.00
2023-05-05T07:54:38.528Z,95090.00
2023-05-05T07:55:38.492Z,95090.00
2023-05-05T07:56:38.453Z,95090.00
2023-05-05T07:57:38.440Z,95088.00
2023-05-05T07:58:38.530Z,95084.00
2023-05-05T07:59:38.462Z,95086.00
2023-05-05T08:00:38.480Z,95084.00
2023-05-05T08:01:38.417Z,95082.00
2023-05-05T08:02:38.611Z,95084.00
2023-05-05T08:03:38.678Z,95082.00
2023-05-05T08:04:38.403Z,95080.00
2023-05-05T08:05:38.371Z,95084.00
2023-05-05T08:06:38.343Z,95084.00
2023-05-05T08:07:38.381Z,95084.00
2023-05-05T08:08:38.389Z,95082.00
2023-05-05T08:09:38.369Z,95080.00
2023-05-05T08:10:38.338Z,95078.00
2023-05-05T08:11:38.353Z,95075.00
2023-05-05T08:12:38.439Z,95080.00
2023-05-05T08:13:38.334Z,95078.00
2023-05-05T08:14:38.373Z,95077.00
2023-05-05T08:15:38.532Z,95077.00
2023-05-05T08:16:38.384Z,95077.00
2023-05-05T08:17:38.447Z,95077.00
2023-05-05T08:18:38.541Z,95077.00
2023-05-05T08:19:38.430Z,95075.00
2023-05-05T08:20:38.523Z,95069.00
2023-05-05T08:21:38.422Z,95071.00
2023-05-05T08:22:38.424Z,95071.00
2023-05-05T08:23:38.448Z,95067.00
2023-05-05T08:24:38.412Z,95067.00
2023-05-05T08:25:38.514Z,95069.00
2023-05-05T08:26:38.446Z,95067.00
2023-05-05T08:27:38.419Z,95065.00
2023-05-05T08:28:38.429Z,95063.00
2023-05-05T08:29:38.527Z,95063.00
2023-05-05T08:30:38.474Z,95059.00
2023-05-05T08:31:38.568Z,95057.00
2023-05-05T08:32:38.812Z,95057.00
2023-05-05T08:33:38.673Z,95053.00
2023-05-05T08:34:38.779Z,95049.00
2023-05-05T08:35:38.801Z,95049.00
2023-05-05T08:36:39.078Z,95049.00
2023-05-05T08:37:39.109Z,95043.00
2023-05-05T08:38:38.820Z,95043.00
2023-05-05T08:39:38.816Z,95041.00
2023-05-05T08:40:38.864Z,95037.00
2023-05-05T08:41:38.867Z,95037.00
2023-05-05T08:42:39.610Z,95037.00
2023-05-05T08:43:38.984Z,95035.00
2023-05-05T08:44:38.919Z,95033.00
2023-05-05T08:45:38.920Z,95028.00
2023-05-05T08:46:39.090Z,95030.00
2023-05-05T08:47:39.092Z,95028.00
2023-05-05T08:48:38.908Z,95028.00
2023-05-05T08:49:38.917Z,95024.00
2023-05-05T08:50:39.047Z,95026.00
2023-05-05T08:51:39.005Z,95028.00
2023-05-05T08:52:38.947Z,95022.00
2023-05-05T08:53:38.917Z,95024.00
2023-05-05T08:54:39.036Z,95022.00
2023-05-05T08:55:39.042Z,95026.00
2023-05-05T08:56:39.099Z,95022.00
2023-05-05T08:57:39.145Z,95020.00
2023-05-05T08:58:39.202Z,95020.00
2023-05-05T08:59:39.271Z,95022.00
2023-05-05T09:00:39.326Z,95018.00
2023-05-05T09:01:39.403Z,95018.00
2023-05-05T09:02:39.457Z,95016.00
2023-05-05T09:03:39.529Z,95018.00
2023-05-05T09:04:40.039Z,95016.00
2023-05-05T09:05:39.613Z,95010.00
2023-05-05T09:06:39.731Z,95012.00
2023-05-05T09:07:39.710Z,95008.00
2023-05-05T09:08:39.788Z,95008.00
2023-05-05T09:09:39.789Z,95006.00
2023-05-05T09:10:39.767Z,95004.00
2023-05-05T09:11:39.812Z,95004.00
2023-05-05T09:12:40.100Z,95002.00
2023-05-05T09:13:40.085Z,95004.00
2023-05-05T09:14:39.835Z,95002.00
2023-05-05T09:15:39.877Z,95002.00
2023-05-05T09:16:39.968Z,94998.00
2023-05-05T09:17:40.019Z,94994.00
2023-05-05T09:18:40.056Z,94994.00
2023-05-05T09:19:40.062Z,94994.00
2023-05-05T09:20:40.052Z,94990.00
2023-05-05T09:21:40.072Z,94988.00
2023-05-05T09:22:40.223Z,94986.00
2023-05-05T09:23:40.563Z,94986.00
2023-05-05T09:24:40.144Z,94982.00
2023-05-05T09:25:40.229Z,94984.00
2023-05-05T09:26:40.280Z,94982.00
2023-05-05T09:27:40.576Z,94980.00
2023-05-05T09:28:40.529Z,94980.00
2023-05-05T09:29:40.390Z,94978.00
2023-05-05T09:30:40.423Z,94978.00
2023-05-05T09:31:40.411Z,94975.00
2023-05-05T09:32:40.410Z,94975.00
2023-05-05T09:33:40.360Z,94973.00
2023-05-05T09:34:40.424Z,94973.00
2023-05-05T09:35:40.453Z,94971.00
2023-05-05T09:36:40.558Z,94971.00
2023-05-05T09:37:40.603Z,94971.00
2023-05-05T09:38:40.798Z,94971.00
2023-05-05T09:39:40.674Z,94967.00
2023-05-05T09:40:40.733Z,94967.00
2023-05-05T09:41:40.844Z,94967.00
2023-05-05T09:42:40.843Z,94965.00
2023-05-05T09:43:41.057Z,94963.00
2023-05-05T09:44:40.966Z,94961.00
2023-05-05T09:45:41.046Z,94961.00
2023-05-05T09:46:41.156Z,94963.00
2023-05-05T09:47:41.229Z,94961.00
2023-05-05T09:48:41.552Z,94957.00
2023-05-05T09:49:41.237Z,94955.00
2023-05-05T09:50:41.266Z,94957.00
2023-05-05T09:51:41.396Z,94955.00
2023-05-05T09:52:41.414Z,94957.00
2023-05-05T09:53:41.582Z,94951.00
2023-05-05T09:54:41.571Z,94951.00
2023-05-05T09:55:41.547Z,94947.00
2023-05-05T09:56:41.586Z,94951.00
2023-05-05T09:57:41.654Z,94949.00
2023-05-05T09:58:41.780Z,94949.00
2023-05-05T09:59:42.076Z,94949.00
2023-05-05T10:00:41.778Z,94949.00
2023-05-05T10:01:41.820Z,94945.00
2023-05-05T10:02:41.947Z,94943.00
2023-05-05T10:03:41.811Z,94941.00
2023-05-05T10:04:41.894Z,94941.00
2023-05-05T10:05:41.883Z,94941.00
2023-05-05T10:06:41.882Z,94937.00
2023-05-05T10:07:41.869Z,94937.00
2023-05-05T10:08:41.926Z,94937.00
2023-05-05T10:09:41.987Z,94935.00
2023-05-05T10:10:42.045Z,94935.00
2023-05-05T10:11:41.954Z,94931.00
2023-05-05T10:12:42.129Z,94933.00
2023-05-05T10:13:42.114Z,94929.00
2023-05-05T10:14:41.974Z,94928.00
2023-05-05T10:15:42.025Z,94928.00
2023-05-05T10:16:42.146Z,94926.00
2023-05-05T10:17:47.865Z,94918.00
2023-05-05T10:18:43.212Z,94914.00
2023-05-05T10:19:42.074Z,94910.00
2023-05-05T10:20:42.063Z,94908.00
2023-05-05T10:21:42.308Z,94910.00
2023-05-05T10:22:42.034Z,94910.00
2023-05-05T10:23:42.063Z,94908.00
2023-05-05T10:24:42.136Z,94906.00
2023-05-05T10:25:42.044Z,94906.00
2023-05-05T10:26:42.058Z,94896.00
2023-05-05T10:27:42.068Z,94908.00
2023-05-05T10:28:42.138Z,94902.00
2023-05-05T10:29:42.195Z,94902.00
2023-05-05T10:30:42.258Z,94902.00
2023-05-05T10:31:42.293Z,94902.00
2023-05-05T10:33:42.442Z,94896.00
2023-05-05T10:34:42.356Z,94892.00
2023-05-05T10:35:42.303Z,94894.00
2023-05-05T10:36:42.302Z,94890.00
2023-05-05T10:37:42.698Z,94881.00
2023-05-05T10:38:42.254Z,94877.00
2023-05-05T10:39:42.320Z,94875.00
2023-05-05T10:40:42.283Z,94871.00
2023-05-05T10:41:42.625Z,94871.00
2023-05-05T10:42:42.402Z,94869.00
2023-05-05T10:43:42.234Z,94867.00
2023-05-05T10:44:42.259Z,94865.00
2023-05-05T10:45:42.364Z,94865.00
2023-05-05T10:46:42.369Z,94865.00
2023-05-05T10:47:42.222Z,94861.00
2023-05-05T10:48:42.217Z,94857.00
2023-05-05T10:49:42.182Z,94857.00
2023-05-05T10:50:42.243Z,94857.00
2023-05-05T10:51:42.636Z,94855.00
2023-05-05T10:52:42.593Z,94853.00
2023-05-05T10:53:42.184Z,94849.00
2023-05-05T10:54:42.181Z,94853.00
2023-05-05T10:55:42.602Z,94849.00
2023-05-05T10:56:42.153Z,94845.00
2023-05-05T10:57:42.164Z,94847.00
2023-05-05T10:58:58.186Z,94843.00
2023-05-05T10:59:43.135Z,94843.00
2023-05-05T11:00:42.164Z,94843.00
2023-05-05T11:01:42.131Z,94837.00
2023-05-05T11:02:42.598Z,94839.00
2023-05-05T11:03:42.134Z,94836.00
2023-05-05T11:04:42.083Z,94832.00
2023-05-05T11:05:42.121Z,94834.00
2023-05-05T11:06:42.111Z,94830.00
2023-05-05T11:07:42.098Z,94830.00
2023-05-05T11:08:42.078Z,94826.00
2023-05-05T11:09:42.032Z,94822.00
2023-05-05T11:10:42.105Z,94820.00
2023-05-05T11:11:42.125Z,94818.00
2023-05-05T11:12:42.243Z,94818.00
2023-05-05T11:13:42.285Z,94814.00
2023-05-05T11:14:42.333Z,94810.00
2023-05-05T11:15:42.366Z,94808.00
2023-05-05T11:16:42.429Z,94806.00
2023-05-05T11:17:42.520Z,94802.00
2023-05-05T11:18:42.608Z,94800.00
2023-05-05T11:19:42.560Z,94802.00
2023-05-05T11:20:42.617Z,94800.00
2023-05-05T11:21:43.128Z,94796.00
2023-05-05T11:22:42.690Z,94798.00
2023-05-05T11:23:42.753Z,94794.00
2023-05-05T11:24:42.795Z,94790.00
2023-05-05T11:25:42.818Z,94790.00
2023-05-05T11:26:42.841Z,94788.00
2023-05-05T11:27:42.911Z,94788.00
2023-05-05T11:28:42.942Z,94786.00
2023-05-05T11:29:43.010Z,94784.00
2023-05-05T11:30:43.108Z,94784.00
2023-05-05T11:31:43.044Z,94781.00
2023-05-05T11:32:43.150Z,94782.00
2023-05-05T11:33:43.164Z,94779.00
2023-05-05T11:34:43.198Z,94777.00
2023-05-05T11:35:43.243Z,94775.00
2023-05-05T11:36:43.294Z,94775.00
2023-05-05T11:37:43.274Z,94773.00
2023-05-05T11:38:43.361Z,94769.00
2023-05-05T11:39:43.378Z,94767.00
2023-05-05T11:40:43.393Z,94769.00
2023-05-05T11:41:43.450Z,94767.00
2023-05-05T11:42:43.507Z,94763.00
2023-05-05T11:43:43.543Z,94759.00
2023-05-05T11:44:43.574Z,94755.00
2023-05-05T11:45:43.624Z,94755.00
2023-05-05T11:46:43.772Z,94755.00